createdAt,value
2018-04-29T00:02:02.232Z,20.40
2018-04-29T00:04:29.891Z,20.30
2018-04-29T00:06:57.446Z,23.27
2018-04-29T00:09:24.992Z,24.77
2018-04-29T00:11:52.528Z,26.43
2018-04-29T00:14:20.828Z,25.47
2018-04-29T00:16:48.390Z,22.80
2018-04-29T00:19:15.978Z,30.63
2018-04-29T00:21:43.488Z,24.53
2018-04-29T00:24:11.079Z,26.37
2018-04-29T00:26:38.619Z,24.20
2018-04-29T00:29:06.179Z,22.70
2018-04-29T00:31:33.693Z,25.73
2018-04-29T00:34:02.124Z,28.00
2018-04-29T00:36:29.726Z,30.50
2018-04-29T00:38:57.249Z,27.77
2018-04-29T00:41:24.818Z,23.70
2018-04-29T00:43:52.929Z,31.43
2018-04-29T00:46:20.548Z,25.53
2018-04-29T00:48:48.176Z,23.13
2018-04-29T00:51:15.660Z,26.40
2018-04-29T00:53:43.258Z,31.70
2018-04-29T00:56:10.896Z,31.10
2018-04-29T00:58:38.432Z,28.60
2018-04-29T01:01:05.975Z,29.93
2018-04-29T01:03:33.503Z,30.00
2018-04-29T01:06:02.342Z,27.23
2018-04-29T01:08:29.911Z,29.03
2018-04-29T01:10:57.430Z,29.87
2018-04-29T01:13:25.732Z,26.00
2018-04-29T01:15:53.304Z,28.30
2018-04-29T01:18:20.868Z,27.77
2018-04-29T01:20:48.391Z,29.70
2018-04-29T01:23:15.976Z,25.53
2018-04-29T01:25:43.519Z,30.47
2018-04-29T01:28:11.047Z,38.33
2018-04-29T01:30:39.341Z,24.90
2018-04-29T01:33:06.942Z,26.87
2018-04-29T01:35:34.481Z,30.07
2018-04-29T01:38:02.033Z,27.07
2018-04-29T01:40:29.601Z,29.90
2018-04-29T01:42:57.129Z,28.17
2018-04-29T01:45:25.445Z,29.20
2018-04-29T01:47:53.008Z,30.37
2018-04-29T01:50:20.529Z,28.43
2018-04-29T01:52:48.049Z,27.67
2018-04-29T01:55:15.622Z,33.37
2018-04-29T01:57:43.932Z,30.57
2018-04-29T02:00:11.468Z,32.67
2018-04-29T02:02:39.773Z,27.27
2018-04-29T02:05:07.301Z,26.50
2018-04-29T02:07:35.590Z,28.20
2018-04-29T02:10:03.163Z,32.90
2018-04-29T02:12:30.697Z,33.33
2018-04-29T02:14:58.993Z,27.73
2018-04-29T02:17:26.541Z,36.10
2018-04-29T02:19:54.099Z,28.53
2018-04-29T02:22:21.654Z,31.37
2018-04-29T02:24:49.236Z,33.37
2018-04-29T02:27:16.793Z,29.80
2018-04-29T02:29:44.321Z,39.67
2018-04-29T02:32:12.649Z,35.80
2018-04-29T02:34:40.211Z,30.20
2018-04-29T02:37:07.753Z,32.93
2018-04-29T02:39:35.320Z,39.13
2018-04-29T02:42:02.962Z,32.03
2018-04-29T02:44:30.530Z,34.37
2018-04-29T02:46:58.092Z,30.83
2018-04-29T02:49:25.613Z,28.57
2018-04-29T02:51:53.150Z,27.43
2018-04-29T02:54:20.772Z,29.20
2018-04-29T02:56:48.326Z,25.70
2018-04-29T02:59:15.882Z,30.17
2018-04-29T03:01:43.415Z,28.87
2018-04-29T03:04:10.991Z,30.07
2018-04-29T03:06:38.522Z,30.13
2018-04-29T03:09:06.835Z,33.17
2018-04-29T03:11:34.384Z,30.17
2018-04-29T03:14:02.120Z,26.20
2018-04-29T03:16:30.422Z,30.40
2018-04-29T03:18:57.968Z,27.87
2018-04-29T03:21:26.533Z,25.47
2018-04-29T03:23:54.854Z,27.50
2018-04-29T03:26:22.383Z,26.47
2018-04-29T03:28:49.982Z,28.43
2018-04-29T03:31:17.649Z,30.80
2018-04-29T03:33:45.202Z,30.60
2018-04-29T03:36:12.721Z,31.23
2018-04-29T03:38:40.262Z,27.27
2018-04-29T03:41:08.560Z,29.90
2018-04-29T03:43:36.081Z,34.90
2018-04-29T03:46:03.629Z,33.50
2018-04-29T03:48:32.675Z,31.73
2018-04-29T03:51:00.352Z,30.30
2018-04-29T03:53:27.910Z,30.00
2018-04-29T03:55:55.493Z,31.43
2018-04-29T03:58:34.971Z,32.23
2018-04-29T04:01:15.448Z,26.83
2018-04-29T04:03:55.119Z,28.03
2018-04-29T04:06:22.633Z,32.40
2018-04-29T04:08:50.933Z,29.70
2018-04-29T04:11:18.480Z,36.10
2018-04-29T04:13:45.993Z,36.93
2018-04-29T04:16:13.510Z,31.43
2018-04-29T04:18:41.068Z,27.67
2018-04-29T04:21:08.633Z,32.70
2018-04-29T04:23:36.211Z,35.73
2018-04-29T04:26:03.859Z,33.23
2018-04-29T04:28:31.397Z,31.67
2018-04-29T04:30:58.913Z,37.67
2018-04-29T04:33:26.822Z,33.50
2018-04-29T04:35:54.655Z,35.50
2018-04-29T04:38:22.953Z,34.90
2018-04-29T04:40:50.501Z,41.23
2018-04-29T04:43:18.798Z,35.17
2018-04-29T04:45:46.362Z,36.60
2018-04-29T04:48:13.904Z,33.20
2018-04-29T04:50:41.452Z,31.60
2018-04-29T04:53:09.735Z,35.37
2018-04-29T04:55:37.299Z,32.20
2018-04-29T04:58:04.965Z,33.80
2018-04-29T05:00:32.435Z,34.40
2018-04-29T05:02:59.992Z,32.03
2018-04-29T05:05:27.554Z,34.27
2018-04-29T05:07:55.153Z,28.30
2018-04-29T05:10:22.770Z,28.47
2018-04-29T05:12:50.320Z,29.77
2018-04-29T05:15:17.845Z,27.60
2018-04-29T05:17:46.175Z,29.33
2018-04-29T05:20:13.730Z,25.30
2018-04-29T05:22:41.251Z,33.50
2018-04-29T05:25:09.660Z,28.03
2018-04-29T05:27:37.185Z,29.83
2018-04-29T05:30:05.496Z,27.00
2018-04-29T05:32:33.056Z,27.40
2018-04-29T05:35:00.586Z,28.20
2018-04-29T05:37:28.115Z,29.20
2018-04-29T05:39:55.653Z,30.13
2018-04-29T05:42:23.310Z,28.17
2018-04-29T05:44:50.849Z,27.13
2018-04-29T05:47:18.419Z,26.53
2018-04-29T05:49:46.032Z,28.43
2018-04-29T05:52:13.644Z,26.63
2018-04-29T05:54:41.210Z,25.20
2018-04-29T05:57:08.750Z,28.80
2018-04-29T05:59:36.308Z,29.50
2018-04-29T06:02:03.871Z,29.93
2018-04-29T06:04:31.389Z,25.50
2018-04-29T06:06:59.003Z,28.80
2018-04-29T06:09:26.548Z,28.90
2018-04-29T06:11:54.061Z,28.53
2018-04-29T06:14:22.362Z,30.17
2018-04-29T06:16:49.932Z,30.87
2018-04-29T06:19:17.484Z,27.20
2018-04-29T06:21:45.866Z,27.10
2018-04-29T06:24:13.433Z,27.07
2018-04-29T06:26:40.999Z,28.37
2018-04-29T06:29:08.540Z,32.60
2018-04-29T06:31:36.110Z,30.20
2018-04-29T06:34:03.679Z,28.87
2018-04-29T06:36:31.216Z,26.10
2018-04-29T06:38:58.794Z,25.50
2018-04-29T06:41:26.331Z,25.53
2018-04-29T06:43:53.852Z,25.93
2018-04-29T06:46:22.173Z,25.93
2018-04-29T06:48:49.712Z,27.23
2018-04-29T06:51:17.239Z,24.97
2018-04-29T06:53:45.559Z,25.57
2018-04-29T06:56:13.098Z,28.07
2018-04-29T06:58:40.667Z,26.73
2018-04-29T07:01:08.249Z,28.47
2018-04-29T07:03:35.765Z,21.20
2018-04-29T07:06:04.089Z,25.00
2018-04-29T07:08:31.639Z,28.60
2018-04-29T07:10:59.306Z,29.53
2018-04-29T07:13:26.869Z,24.80
2018-04-29T07:15:54.411Z,25.50
2018-04-29T07:18:21.974Z,31.67
2018-04-29T07:20:49.504Z,24.13
2018-04-29T07:23:17.051Z,22.63
2018-04-29T07:25:45.457Z,20.10
2018-04-29T07:28:12.977Z,21.37
2018-04-29T07:30:41.396Z,23.90
2018-04-29T07:33:08.953Z,24.17
2018-04-29T07:35:36.496Z,21.40
2018-04-29T07:38:04.031Z,22.10
2018-04-29T07:40:32.360Z,19.40
2018-04-29T07:42:59.882Z,22.73
2018-04-29T07:45:28.165Z,23.77
2018-04-29T07:47:55.734Z,13.80
2018-04-29T07:50:23.308Z,11.70
2018-04-29T07:52:50.843Z,16.47
2018-04-29T07:55:18.626Z,10.07
2018-04-29T07:57:46.193Z,9.43
2018-04-29T08:00:13.713Z,11.27
2018-04-29T08:02:42.037Z,17.10
2018-04-29T08:05:09.551Z,12.03
2018-04-29T08:07:37.097Z,11.07
2018-04-29T08:10:05.405Z,10.47
2018-04-29T08:12:32.931Z,10.13
2018-04-29T08:15:01.239Z,9.57
2018-04-29T08:17:28.781Z,13.83
2018-04-29T08:19:56.304Z,12.93
2018-04-29T08:22:23.860Z,14.33
2018-04-29T08:24:51.482Z,12.63
2018-04-29T08:27:19.046Z,13.90
2018-04-29T08:29:46.572Z,11.40
2018-04-29T08:32:14.263Z,7.70
2018-04-29T08:34:41.806Z,8.33
2018-04-29T08:37:09.371Z,15.87
2018-04-29T08:39:36.919Z,9.77
2018-04-29T08:42:04.429Z,10.40
2018-04-29T08:44:31.942Z,12.60
2018-04-29T08:46:59.616Z,12.70
2018-04-29T08:49:27.199Z,18.70
2018-04-29T08:51:55.503Z,11.60
2018-04-29T08:54:23.831Z,11.40
2018-04-29T08:56:51.356Z,11.00
2018-04-29T08:59:18.915Z,11.87
2018-04-29T09:01:46.473Z,10.57
2018-04-29T09:04:14.000Z,15.73
2018-04-29T09:06:41.540Z,13.73
2018-04-29T09:09:09.106Z,17.17
2018-04-29T09:11:36.687Z,13.20
2018-04-29T09:14:04.989Z,14.60
2018-04-29T09:16:32.566Z,18.77
2018-04-29T09:19:00.084Z,14.37
2018-04-29T09:21:27.674Z,15.57
2018-04-29T09:23:55.248Z,13.60
2018-04-29T09:26:22.799Z,20.20
2018-04-29T09:28:50.332Z,19.20
2018-04-29T09:31:17.910Z,18.40
2018-04-29T09:33:45.448Z,17.37
2018-04-29T09:36:13.770Z,13.90
2018-04-29T09:38:41.325Z,13.13
2018-04-29T09:41:08.841Z,12.50
2018-04-29T09:43:37.196Z,17.33
2018-04-29T09:46:04.728Z,15.73
2018-04-29T09:48:32.275Z,12.60
2018-04-29T09:50:59.817Z,17.43
2018-04-29T09:53:27.376Z,16.20
2018-04-29T09:55:54.911Z,12.53
2018-04-29T09:58:23.227Z,17.10
2018-04-29T10:00:51.288Z,14.83
2018-04-29T10:03:19.528Z,15.00
2018-04-29T10:05:47.818Z,20.20
2018-04-29T10:08:15.371Z,18.50
2018-04-29T10:10:42.966Z,16.93
2018-04-29T10:13:10.489Z,12.90
2018-04-29T10:15:38.086Z,16.33
2018-04-29T10:18:05.606Z,16.80
2018-04-29T10:20:33.145Z,14.70
2018-04-29T10:23:01.472Z,13.87
2018-04-29T10:25:28.995Z,14.53
2018-04-29T10:27:57.331Z,14.10
2018-04-29T10:30:24.954Z,14.00
2018-04-29T10:32:52.618Z,13.63
2018-04-29T10:35:20.071Z,14.40
2018-04-29T10:37:47.734Z,23.73
2018-04-29T10:40:15.321Z,19.03
2018-04-29T10:42:42.852Z,17.17
2018-04-29T10:45:10.418Z,23.23
2018-04-29T10:47:38.094Z,16.50
2018-04-29T10:50:05.644Z,19.97
2018-04-29T10:52:33.263Z,15.37
2018-04-29T10:55:00.732Z,22.73
2018-04-29T10:57:28.266Z,17.03
2018-04-29T10:59:56.592Z,23.17
2018-04-29T11:02:24.103Z,18.60
2018-04-29T11:04:52.397Z,19.50
2018-04-29T11:07:19.963Z,18.70
2018-04-29T11:09:47.539Z,18.27
2018-04-29T11:12:15.069Z,15.80
2018-04-29T11:14:42.645Z,16.20
2018-04-29T11:17:10.161Z,20.70
2018-04-29T11:19:37.696Z,21.37
2018-04-29T11:22:05.300Z,18.43
2018-04-29T11:24:33.601Z,24.77
2018-04-29T11:27:01.471Z,22.63
2018-04-29T11:29:29.002Z,27.40
2018-04-29T11:31:56.533Z,22.60
2018-04-29T11:34:24.092Z,21.43
2018-04-29T11:36:51.622Z,20.83
2018-04-29T11:39:19.159Z,21.13
2018-04-29T11:41:46.701Z,25.53
2018-04-29T11:44:14.235Z,29.17
2018-04-29T11:46:42.564Z,19.43
2018-04-29T11:49:10.086Z,22.70
2018-04-29T11:51:37.609Z,25.03
2018-04-29T11:54:05.164Z,19.20
2018-04-29T11:56:32.785Z,17.63
2018-04-29T11:59:00.363Z,22.40
2018-04-29T12:01:27.955Z,21.03
2018-04-29T12:03:55.473Z,20.73
2018-04-29T12:06:23.031Z,22.23
2018-04-29T12:08:50.556Z,19.13
2018-04-29T12:11:18.894Z,17.07
2018-04-29T12:13:47.184Z,23.60
2018-04-29T12:16:14.816Z,58.03
2018-04-29T12:18:42.459Z,17.87
2018-04-29T12:21:10.020Z,16.43
2018-04-29T12:23:37.688Z,17.80
2018-04-29T12:26:05.241Z,18.00
2018-04-29T12:28:32.772Z,21.10
2018-04-29T12:31:00.342Z,17.97
2018-04-29T12:33:27.872Z,22.57
2018-04-29T12:35:55.408Z,17.93
2018-04-29T12:38:22.957Z,20.13
2018-04-29T12:40:50.477Z,17.90
2018-04-29T12:43:17.996Z,16.17
2018-04-29T12:45:46.428Z,17.87
2018-04-29T12:48:13.969Z,17.73
2018-04-29T12:50:41.649Z,21.70
2018-04-29T12:53:09.203Z,15.27
2018-04-29T12:55:36.760Z,12.60
2018-04-29T12:58:04.310Z,19.73
2018-04-29T13:00:31.884Z,17.60
2018-04-29T13:03:00.451Z,20.90
2018-04-29T13:05:28.027Z,17.63
2018-04-29T13:07:55.589Z,16.57
2018-04-29T13:10:23.119Z,16.57
2018-04-29T13:12:50.642Z,13.93
2018-04-29T13:15:18.961Z,16.33
2018-04-29T13:17:46.481Z,15.90
2018-04-29T13:20:14.800Z,21.03
2018-04-29T13:22:42.368Z,14.90
2018-04-29T13:25:09.911Z,20.97
2018-04-29T13:27:38.058Z,12.47
2018-04-29T13:30:06.360Z,18.70
2018-04-29T13:32:33.913Z,14.20
2018-04-29T13:35:01.500Z,16.43
2018-04-29T13:37:29.019Z,13.83
2018-04-29T13:39:56.567Z,16.87
2018-04-29T13:42:24.906Z,14.33
2018-04-29T13:44:52.423Z,18.20
2018-04-29T13:47:20.001Z,18.97
2018-04-29T13:49:47.517Z,12.73
2018-04-29T13:52:15.877Z,15.70
2018-04-29T13:54:43.378Z,20.27
2018-04-29T13:57:10.942Z,19.43
2018-04-29T13:59:38.506Z,17.00
2018-04-29T14:02:06.160Z,15.23
2018-04-29T14:04:33.705Z,12.67
2018-04-29T14:07:01.289Z,16.40
2018-04-29T14:09:28.951Z,13.67
2018-04-29T14:11:56.484Z,14.27
2018-04-29T14:14:24.019Z,17.93
2018-04-29T14:16:52.334Z,16.80
2018-04-29T14:19:19.864Z,16.00
2018-04-29T14:21:48.145Z,14.60
2018-04-29T14:24:15.734Z,15.07
2018-04-29T14:26:43.267Z,16.00
2018-04-29T14:29:10.782Z,19.47
2018-04-29T14:31:38.430Z,18.83
2018-04-29T14:34:06.072Z,18.23
2018-04-29T14:36:34.535Z,15.47
2018-04-29T14:39:02.109Z,12.70
2018-04-29T14:41:29.658Z,15.30
2018-04-29T14:43:57.250Z,13.30
2018-04-29T14:46:24.827Z,17.17
2018-04-29T14:48:52.423Z,14.83
2018-04-29T14:51:20.110Z,15.60
2018-04-29T14:53:47.659Z,20.40
2018-04-29T14:56:15.178Z,24.03
2018-04-29T14:58:43.463Z,18.13
2018-04-29T15:01:11.901Z,17.50
2018-04-29T15:03:39.547Z,19.33
2018-04-29T15:06:07.097Z,20.43
2018-04-29T15:08:34.660Z,12.90
2018-04-29T15:11:02.223Z,15.93
2018-04-29T15:13:29.760Z,18.23
2018-04-29T15:15:57.327Z,15.70
2018-04-29T15:18:36.974Z,22.30
2018-04-29T15:21:04.534Z,18.50
2018-04-29T15:23:32.089Z,14.73
2018-04-29T15:25:59.663Z,15.13
2018-04-29T15:28:27.223Z,16.90
2018-04-29T15:30:54.790Z,19.30
2018-04-29T15:33:22.428Z,19.90
2018-04-29T15:35:50.008Z,21.13
2018-04-29T15:38:17.640Z,18.13
2018-04-29T15:40:45.199Z,22.47
2018-04-29T15:43:12.750Z,25.77
2018-04-29T15:45:40.294Z,32.47
2018-04-29T15:48:07.822Z,24.73
2018-04-29T15:50:35.374Z,26.53
2018-04-29T15:53:03.002Z,27.20
2018-04-29T15:55:30.551Z,26.80
2018-04-29T15:57:58.117Z,32.80
2018-04-29T16:00:25.683Z,30.50
2018-04-29T16:02:53.211Z,32.30
2018-04-29T16:05:20.788Z,31.33
2018-04-29T16:07:48.341Z,31.07
2018-04-29T16:10:15.902Z,31.53
2018-04-29T16:12:43.560Z,34.27
2018-04-29T16:15:11.081Z,34.43
2018-04-29T16:17:41.048Z,35.60
2018-04-29T16:20:08.598Z,30.77
2018-04-29T16:22:36.337Z,32.83
2018-04-29T16:25:03.918Z,35.03
2018-04-29T16:27:31.488Z,38.60
2018-04-29T16:29:59.034Z,30.40
2018-04-29T16:32:26.591Z,38.00
2018-04-29T16:34:54.108Z,33.23
2018-04-29T16:37:22.393Z,36.20
2018-04-29T16:39:50.715Z,32.90
2018-04-29T16:42:18.253Z,36.30
2018-04-29T16:44:45.776Z,38.03
2018-04-29T16:47:14.099Z,35.60
2018-04-29T16:49:41.646Z,35.57
2018-04-29T16:52:09.219Z,39.20
2018-04-29T16:54:36.764Z,38.90
2018-04-29T16:57:04.289Z,43.43
2018-04-29T16:59:32.597Z,45.10
2018-04-29T17:02:00.152Z,37.93
2018-04-29T17:04:27.709Z,43.43
2018-04-29T17:06:55.243Z,38.60
2018-04-29T17:09:23.573Z,41.50
2018-04-29T17:11:51.111Z,41.97
2018-04-29T17:14:18.644Z,38.90
2018-04-29T17:16:46.955Z,37.20
2018-04-29T17:19:14.506Z,41.40
2018-04-29T17:21:42.035Z,41.73
2018-04-29T17:24:10.354Z,39.70
2018-04-29T17:26:37.919Z,42.47
2018-04-29T17:29:05.491Z,39.80
2018-04-29T17:31:33.025Z,45.40
2018-04-29T17:34:00.591Z,39.00
2018-04-29T17:36:28.118Z,37.83
2018-04-29T17:38:55.715Z,31.93
2018-04-29T17:41:23.261Z,38.60
2018-04-29T17:43:50.790Z,37.20
2018-04-29T17:46:19.088Z,34.90
2018-04-29T17:48:46.652Z,35.93
2018-04-29T17:51:14.237Z,37.43
2018-04-29T17:53:41.884Z,34.13
2018-04-29T17:56:09.500Z,36.40
2018-04-29T17:58:36.980Z,36.60
2018-04-29T18:01:04.516Z,35.63
2018-04-29T18:03:32.084Z,36.37
2018-04-29T18:05:59.673Z,44.23
2018-04-29T18:08:27.210Z,36.20
2018-04-29T18:10:54.777Z,40.67
2018-04-29T18:13:22.297Z,41.03
2018-04-29T18:15:50.600Z,45.17
2018-04-29T18:18:18.171Z,38.47
2018-04-29T18:20:45.719Z,44.07
2018-04-29T18:23:13.304Z,39.20
2018-04-29T18:25:40.857Z,45.77
2018-04-29T18:28:08.377Z,43.80
2018-04-29T18:30:36.680Z,49.07
2018-04-29T18:33:04.260Z,47.83
2018-04-29T18:35:31.782Z,48.20
2018-04-29T18:37:59.292Z,47.40
2018-04-29T18:40:26.852Z,44.07
2018-04-29T18:42:55.165Z,49.43
2018-04-29T18:45:22.734Z,49.10
2018-04-29T18:47:50.327Z,49.93
2018-04-29T18:50:17.852Z,47.13
2018-04-29T18:52:45.454Z,49.70
2018-04-29T18:55:13.098Z,52.23
2018-04-29T18:57:40.673Z,47.20
2018-04-29T19:00:08.217Z,46.73
2018-04-29T19:02:36.089Z,48.80
2018-04-29T19:05:03.652Z,50.70
2018-04-29T19:07:31.199Z,45.83
2018-04-29T19:09:58.762Z,50.23
2018-04-29T19:12:26.290Z,46.93
2018-04-29T19:14:54.283Z,49.53
2018-04-29T19:17:21.870Z,51.63
2018-04-29T19:19:49.404Z,45.57
2018-04-29T19:22:16.953Z,50.87
2018-04-29T19:24:44.536Z,52.73
2018-04-29T19:27:12.394Z,53.10
2018-04-29T19:29:39.938Z,48.33
2018-04-29T19:32:07.507Z,49.10
2018-04-29T19:34:35.048Z,51.80
2018-04-29T19:37:04.725Z,53.13
2018-04-29T19:39:32.277Z,49.87
2018-04-29T19:42:00.584Z,49.17
2018-04-29T19:44:28.124Z,54.37
2018-04-29T19:46:56.457Z,54.80
2018-04-29T19:49:23.984Z,49.30
2018-04-29T19:51:51.564Z,51.80
2018-04-29T19:54:19.148Z,54.10
2018-04-29T19:56:47.443Z,56.00
2018-04-29T19:59:15.780Z,56.57
2018-04-29T20:01:43.348Z,58.00
2018-04-29T20:04:10.975Z,53.00
2018-04-29T20:06:38.509Z,53.23
2018-04-29T20:09:06.929Z,54.83
2018-04-29T20:11:34.514Z,54.03
2018-04-29T20:14:02.029Z,55.33
2018-04-29T20:16:29.604Z,54.53
2018-04-29T20:18:57.590Z,59.77
2018-04-29T20:21:25.127Z,55.35
2018-04-29T20:23:52.743Z,53.78
2018-04-29T20:26:21.150Z,62.00
2018-04-29T20:28:48.681Z,80.00
2018-04-29T20:31:17.020Z,72.67
2018-04-29T20:33:44.545Z,77.93
2018-04-29T20:36:12.060Z,90.20
2018-04-29T20:38:40.412Z,76.57
2018-04-29T20:41:07.944Z,86.17
2018-04-29T20:43:35.475Z,99.80
2018-04-29T20:46:03.819Z,101.57
2018-04-29T20:48:31.374Z,100.27
2018-04-29T20:50:58.898Z,98.20
2018-04-29T20:53:26.475Z,110.80
2018-04-29T20:55:54.012Z,114.77
2018-04-29T20:58:21.557Z,120.13
2018-04-29T21:00:49.120Z,112.97
2018-04-29T21:03:16.650Z,113.30
2018-04-29T21:05:44.948Z,112.17
2018-04-29T21:08:12.516Z,86.60
2018-04-29T21:10:40.040Z,92.50
2018-04-29T21:13:08.346Z,87.63
2018-04-29T21:15:35.903Z,86.63
2018-04-29T21:18:03.435Z,86.50
2018-04-29T21:20:31.737Z,82.93
2018-04-29T21:22:59.297Z,83.77
2018-04-29T21:25:26.822Z,81.07
2018-04-29T21:27:55.138Z,89.20
2018-04-29T21:30:22.711Z,94.23
2018-04-29T21:32:50.254Z,81.13
2018-04-29T21:35:17.796Z,93.27
2018-04-29T21:37:45.345Z,80.97
2018-04-29T21:40:13.654Z,67.67
2018-04-29T21:42:41.178Z,78.43
2018-04-29T21:45:09.507Z,81.30
2018-04-29T21:47:37.034Z,79.63
2018-04-29T21:50:04.605Z,81.43
2018-04-29T21:52:32.167Z,72.87
2018-04-29T21:54:59.736Z,86.53
2018-04-29T21:57:27.261Z,83.40
2018-04-29T21:59:54.829Z,86.33
2018-04-29T22:02:22.348Z,82.00
2018-04-29T22:04:49.881Z,88.63
2018-04-29T22:07:17.445Z,83.90
2018-04-29T22:09:44.983Z,82.37
2018-04-29T22:12:12.527Z,81.83
2018-04-29T22:14:40.096Z,80.20
2018-04-29T22:17:07.633Z,80.60
2018-04-29T22:19:35.148Z,73.30
2018-04-29T22:22:03.545Z,76.57
2018-04-29T22:24:31.014Z,80.57
2018-04-29T22:26:59.335Z,75.40
2018-04-29T22:29:26.964Z,73.73
2018-04-29T22:31:54.497Z,82.80
2018-04-29T22:34:22.803Z,68.17
2018-04-29T22:36:50.354Z,72.27
2018-04-29T22:39:17.881Z,76.83
2018-04-29T22:41:46.172Z,66.93
2018-04-29T22:44:14.576Z,78.03
2018-04-29T22:46:42.153Z,85.40
2018-04-29T22:49:09.673Z,85.93
2018-04-29T22:51:37.250Z,82.80
2018-04-29T22:54:04.780Z,74.30
2018-04-29T22:56:33.122Z,72.83
2018-04-29T22:59:00.677Z,82.77
2018-04-29T23:01:28.211Z,69.77
2018-04-29T23:03:55.817Z,74.13
2018-04-29T23:06:23.343Z,79.57
2018-04-29T23:08:50.863Z,70.20
2018-04-29T23:11:18.391Z,74.43
2018-04-29T23:13:45.947Z,76.90
2018-04-29T23:16:13.470Z,72.20
2018-04-29T23:18:41.010Z,76.70
2018-04-29T23:21:08.554Z,69.67
2018-04-29T23:23:36.067Z,71.70
2018-04-29T23:26:03.593Z,74.20
2018-04-29T23:28:31.148Z,77.30
2018-04-29T23:30:58.683Z,82.33
2018-04-29T23:33:26.213Z,82.90
2018-04-29T23:35:53.764Z,81.53
2018-04-29T23:38:21.286Z,77.50
2018-04-29T23:40:48.808Z,60.30
2018-04-29T23:43:17.119Z,77.30
2018-04-29T23:45:44.651Z,82.30
2018-04-29T23:48:12.183Z,76.50
2018-04-29T23:50:39.748Z,99.83
2018-04-29T23:53:08.053Z,92.73
2018-04-29T23:55:35.573Z,92.37
2018-04-29T23:58:03.185Z,97.83
